sensor_id;sensor_type;location;lat;lon;timestamp;temperature;humidity
6429;DHT22;3247;48.946;10.220;2022-07-29T00:02:25;18.70;99.90
6429;DHT22;3247;48.946;10.220;2022-07-29T00:04:50;18.50;99.90
6429;DHT22;3247;48.946;10.220;2022-07-29T00:07:16;18.50;99.90
6429;DHT22;3247;48.946;10.220;2022-07-29T00:09:41;18.50;99.90
6429;DHT22;3247;48.946;10.220;2022-07-29T00:12:07;18.50;99.90
6429;DHT22;3247;48.946;10.220;2022-07-29T00:14:32;18.50;99.90
6429;DHT22;3247;48.946;10.220;2022-07-29T00:16:58;18.50;99.90
6429;DHT22;3247;48.946;10.220;2022-07-29T00:19:23;18.50;99.90
6429;DHT22;3247;48.946;10.220;2022-07-29T00:21:54;18.40;99.90
6429;DHT22;3247;48.946;10.220;2022-07-29T00:24:19;18.40;99.90
6429;DHT22;3247;48.946;10.220;2022-07-29T00:26:45;18.40;99.90
6429;DHT22;3247;48.946;10.220;2022-07-29T00:29:10;18.40;99.90
6429;DHT22;3247;48.946;10.220;2022-07-29T00:31:36;18.40;99.90
6429;DHT22;3247;48.946;10.220;2022-07-29T00:34:02;18.40;99.90
6429;DHT22;3247;48.946;10.220;2022-07-29T00:36:28;18.40;99.90
6429;DHT22;3247;48.946;10.220;2022-07-29T00:38:53;18.30;99.90
6429;DHT22;3247;48.946;10.220;2022-07-29T00:41:19;18.30;99.90
6429;DHT22;3247;48.946;10.220;2022-07-29T00:43:45;18.30;99.90
6429;DHT22;3247;48.946;10.220;2022-07-29T00:46:10;18.30;99.90
6429;DHT22;3247;48.946;10.220;2022-07-29T00:48:36;18.20;99.90
6429;DHT22;3247;48.946;10.220;2022-07-29T00:51:07;18.30;99.90
6429;DHT22;3247;48.946;10.220;2022-07-29T00:53:33;18.30;99.90
6429;DHT22;3247;48.946;10.220;2022-07-29T00:55:59;18.20;99.90
6429;DHT22;3247;48.946;10.220;2022-07-29T00:58:24;18.20;99.90
6429;DHT22;3247;48.946;10.220;2022-07-29T01:00:51;18.20;99.90
6429;DHT22;3247;48.946;10.220;2022-07-29T01:03:17;18.10;99.90
6429;DHT22;3247;48.946;10.220;2022-07-29T01:05:43;18.10;99.90
6429;DHT22;3247;48.946;10.220;2022-07-29T01:08:10;18.10;99.90
6429;DHT22;3247;48.946;10.220;2022-07-29T01:10:36;18.10;99.90
6429;DHT22;3247;48.946;10.220;2022-07-29T01:13:03;18.10;99.90
6429;DHT22;3247;48.946;10.220;2022-07-29T01:15:28;18.10;99.90
6429;DHT22;3247;48.946;10.220;2022-07-29T01:28:17;17.80;99.90
6429;DHT22;3247;48.946;10.220;2022-07-29T01:30:48;17.70;99.90
6429;DHT22;3247;48.946;10.220;2022-07-29T01:33:15;17.50;99.90
6429;DHT22;3247;48.946;10.220;2022-07-29T01:36:04;17.30;99.90
6429;DHT22;3247;48.946;10.220;2022-07-29T01:38:31;17.40;99.90
6429;DHT22;3247;48.946;10.220;2022-07-29T01:40:59;17.30;99.90
6429;DHT22;3247;48.946;10.220;2022-07-29T01:43:40;17.30;99.90
6429;DHT22;3247;48.946;10.220;2022-07-29T01:46:09;17.00;99.90
6429;DHT22;3247;48.946;10.220;2022-07-29T01:48:37;17.20;99.90
6429;DHT22;3247;48.946;10.220;2022-07-29T01:51:09;17.10;99.90
6429;DHT22;3247;48.946;10.220;2022-07-29T01:53:38;17.10;99.90
6429;DHT22;3247;48.946;10.220;2022-07-29T01:56:07;17.10;99.90
6429;DHT22;3247;48.946;10.220;2022-07-29T01:58:34;17.00;99.90
6429;DHT22;3247;48.946;10.220;2022-07-29T02:01:00;17.00;99.90
6429;DHT22;3247;48.946;10.220;2022-07-29T02:03:26;16.90;99.90
6429;DHT22;3247;48.946;10.220;2022-07-29T02:05:53;16.90;99.90
6429;DHT22;3247;48.946;10.220;2022-07-29T02:08:18;17.00;99.90
6429;DHT22;3247;48.946;10.220;2022-07-29T02:10:45;16.60;99.90
6429;DHT22;3247;48.946;10.220;2022-07-29T02:13:12;16.60;99.90
6429;DHT22;3247;48.946;10.220;2022-07-29T02:15:38;16.60;99.90
6429;DHT22;3247;48.946;10.220;2022-07-29T02:18:07;16.60;99.90
6429;DHT22;3247;48.946;10.220;2022-07-29T02:20:38;16.60;99.90
6429;DHT22;3247;48.946;10.220;2022-07-29T02:23:05;16.40;99.90
6429;DHT22;3247;48.946;10.220;2022-07-29T02:25:32;16.40;99.90
6429;DHT22;3247;48.946;10.220;2022-07-29T02:27:57;16.30;99.90
6429;DHT22;3247;48.946;10.220;2022-07-29T02:30:24;16.20;99.90
6429;DHT22;3247;48.946;10.220;2022-07-29T02:32:50;16.20;99.90
6429;DHT22;3247;48.946;10.220;2022-07-29T02:35:16;16.20;99.90
6429;DHT22;3247;48.946;10.220;2022-07-29T02:37:43;16.30;99.90
6429;DHT22;3247;48.946;10.220;2022-07-29T02:40:10;16.30;99.90
6429;DHT22;3247;48.946;10.220;2022-07-29T02:42:36;16.30;99.90
6429;DHT22;3247;48.946;10.220;2022-07-29T02:45:03;16.40;99.90
6429;DHT22;3247;48.946;10.220;2022-07-29T02:47:36;16.30;99.90
6429;DHT22;3247;48.946;10.220;2022-07-29T02:50:04;16.30;99.90
6429;DHT22;3247;48.946;10.220;2022-07-29T02:52:34;16.20;99.90
6429;DHT22;3247;48.946;10.220;2022-07-29T02:55:16;16.20;99.90
6429;DHT22;3247;48.946;10.220;2022-07-29T02:57:46;16.20;99.90
6429;DHT22;3247;48.946;10.220;2022-07-29T03:00:13;16.40;99.90
6429;DHT22;3247;48.946;10.220;2022-07-29T03:02:40;16.30;99.90
6429;DHT22;3247;48.946;10.220;2022-07-29T03:05:06;16.30;99.90
6429;DHT22;3247;48.946;10.220;2022-07-29T03:07:33;16.20;99.90
6429;DHT22;3247;48.946;10.220;2022-07-29T03:09:59;16.20;99.90
6429;DHT22;3247;48.946;10.220;2022-07-29T03:12:25;16.20;99.90
6429;DHT22;3247;48.946;10.220;2022-07-29T03:14:51;16.20;99.90
6429;DHT22;3247;48.946;10.220;2022-07-29T03:17:17;16.30;99.90
6429;DHT22;3247;48.946;10.220;2022-07-29T03:19:46;16.20;99.90
6429;DHT22;3247;48.946;10.220;2022-07-29T03:22:12;16.00;99.90
6429;DHT22;3247;48.946;10.220;2022-07-29T03:24:38;15.90;99.90
6429;DHT22;3247;48.946;10.220;2022-07-29T03:27:04;15.80;99.90
6429;DHT22;3247;48.946;10.220;2022-07-29T03:29:30;15.80;99.90
6429;DHT22;3247;48.946;10.220;2022-07-29T03:31:56;15.60;99.90
6429;DHT22;3247;48.946;10.220;2022-07-29T03:34:22;15.70;99.90
6429;DHT22;3247;48.946;10.220;2022-07-29T03:36:48;15.70;99.90
6429;DHT22;3247;48.946;10.220;2022-07-29T03:39:21;15.70;99.90
6429;DHT22;3247;48.946;10.220;2022-07-29T03:41:49;15.60;99.90
6429;DHT22;3247;48.946;10.220;2022-07-29T03:44:15;15.60;99.90
6429;DHT22;3247;48.946;10.220;2022-07-29T03:46:41;15.50;99.90
6429;DHT22;3247;48.946;10.220;2022-07-29T03:49:08;15.50;99.90
6429;DHT22;3247;48.946;10.220;2022-07-29T03:51:35;15.50;99.90
6429;DHT22;3247;48.946;10.220;2022-07-29T03:54:02;15.50;99.90
6429;DHT22;3247;48.946;10.220;2022-07-29T03:56:27;15.40;99.90
6429;DHT22;3247;48.946;10.220;2022-07-29T03:58:53;15.40;99.90
6429;DHT22;3247;48.946;10.220;2022-07-29T04:01:19;15.50;99.90
6429;DHT22;3247;48.946;10.220;2022-07-29T04:03:45;15.40;99.90
6429;DHT22;3247;48.946;10.220;2022-07-29T04:06:11;15.30;99.90
6429;DHT22;3247;48.946;10.220;2022-07-29T04:08:37;15.30;99.90
6429;DHT22;3247;48.946;10.220;2022-07-29T04:11:03;15.20;99.90
6429;DHT22;3247;48.946;10.220;2022-07-29T04:13:28;15.10;99.90
6429;DHT22;3247;48.946;10.220;2022-07-29T04:15:54;15.10;99.90
6429;DHT22;3247;48.946;10.220;2022-07-29T04:18:19;15.20;99.90
6429;DHT22;3247;48.946;10.220;2022-07-29T04:20:45;15.40;99.90
6429;DHT22;3247;48.946;10.220;2022-07-29T04:23:10;15.50;99.90
6429;DHT22;3247;48.946;10.220;2022-07-29T04:25:37;15.50;99.90
6429;DHT22;3247;48.946;10.220;2022-07-29T04:28:02;15.60;99.90
6429;DHT22;3247;48.946;10.220;2022-07-29T04:30:28;15.70;99.90
6429;DHT22;3247;48.946;10.220;2022-07-29T04:32:54;15.80;99.90
6429;DHT22;3247;48.946;10.220;2022-07-29T04:35:20;15.90;99.90
6429;DHT22;3247;48.946;10.220;2022-07-29T04:37:45;16.10;99.90
6429;DHT22;3247;48.946;10.220;2022-07-29T04:40:11;16.40;99.90
6429;DHT22;3247;48.946;10.220;2022-07-29T04:42:37;16.30;99.90
6429;DHT22;3247;48.946;10.220;2022-07-29T04:45:03;16.40;99.90
6429;DHT22;3247;48.946;10.220;2022-07-29T04:47:28;16.40;99.90
6429;DHT22;3247;48.946;10.220;2022-07-29T04:49:54;16.40;99.90
6429;DHT22;3247;48.946;10.220;2022-07-29T04:52:20;16.80;99.90
6429;DHT22;3247;48.946;10.220;2022-07-29T04:54:45;16.90;99.90
6429;DHT22;3247;48.946;10.220;2022-07-29T04:57:11;17.20;99.90
6429;DHT22;3247;48.946;10.220;2022-07-29T04:59:36;17.20;99.90
6429;DHT22;3247;48.946;10.220;2022-07-29T05:02:02;17.30;99.90
6429;DHT22;3247;48.946;10.220;2022-07-29T05:04:27;17.50;99.90
6429;DHT22;3247;48.946;10.220;2022-07-29T05:06:53;17.60;99.90
6429;DHT22;3247;48.946;10.220;2022-07-29T05:09:19;17.60;99.90
6429;DHT22;3247;48.946;10.220;2022-07-29T05:11:44;17.80;99.90
6429;DHT22;3247;48.946;10.220;2022-07-29T05:14:09;18.70;99.90
6429;DHT22;3247;48.946;10.220;2022-07-29T05:16:35;19.70;99.90
6429;DHT22;3247;48.946;10.220;2022-07-29T05:19:01;20.80;99.90
6429;DHT22;3247;48.946;10.220;2022-07-29T05:21:26;21.90;99.90
6429;DHT22;3247;48.946;10.220;2022-07-29T05:23:52;22.10;99.90
6429;DHT22;3247;48.946;10.220;2022-07-29T05:26:17;22.60;99.90
6429;DHT22;3247;48.946;10.220;2022-07-29T05:28:43;22.10;99.90
6429;DHT22;3247;48.946;10.220;2022-07-29T05:31:09;22.00;99.90
6429;DHT22;3247;48.946;10.220;2022-07-29T05:33:34;21.80;99.90
6429;DHT22;3247;48.946;10.220;2022-07-29T05:36:00;21.60;99.90
6429;DHT22;3247;48.946;10.220;2022-07-29T05:38:25;21.80;99.90
6429;DHT22;3247;48.946;10.220;2022-07-29T05:40:51;22.20;99.90
6429;DHT22;3247;48.946;10.220;2022-07-29T05:43:16;22.40;99.90
6429;DHT22;3247;48.946;10.220;2022-07-29T05:45:42;22.80;99.90
6429;DHT22;3247;48.946;10.220;2022-07-29T05:48:08;22.90;99.90
6429;DHT22;3247;48.946;10.220;2022-07-29T05:50:38;23.40;99.90
6429;DHT22;3247;48.946;10.220;2022-07-29T05:53:04;24.30;99.90
6429;DHT22;3247;48.946;10.220;2022-07-29T05:55:29;24.30;99.90
6429;DHT22;3247;48.946;10.220;2022-07-29T05:57:55;24.50;99.90
6429;DHT22;3247;48.946;10.220;2022-07-29T06:00:20;24.10;99.90
6429;DHT22;3247;48.946;10.220;2022-07-29T06:02:46;23.60;99.90
6429;DHT22;3247;48.946;10.220;2022-07-29T06:05:11;23.30;99.90
6429;DHT22;3247;48.946;10.220;2022-07-29T06:07:37;23.10;99.90
6429;DHT22;3247;48.946;10.220;2022-07-29T06:10:02;23.20;99.90
6429;DHT22;3247;48.946;10.220;2022-07-29T06:12:28;23.70;99.90
6429;DHT22;3247;48.946;10.220;2022-07-29T06:14:53;24.30;99.90
6429;DHT22;3247;48.946;10.220;2022-07-29T06:17:19;24.80;99.90
6429;DHT22;3247;48.946;10.220;2022-07-29T06:19:44;24.80;99.90
6429;DHT22;3247;48.946;10.220;2022-07-29T06:22:10;24.80;99.90
6429;DHT22;3247;48.946;10.220;2022-07-29T06:24:35;25.30;99.90
6429;DHT22;3247;48.946;10.220;2022-07-29T06:27:02;25.20;99.90
6429;DHT22;3247;48.946;10.220;2022-07-29T06:29:27;25.10;99.90
6429;DHT22;3247;48.946;10.220;2022-07-29T06:31:53;24.50;99.90
6429;DHT22;3247;48.946;10.220;2022-07-29T06:34:18;24.20;99.90
6429;DHT22;3247;48.946;10.220;2022-07-29T06:36:44;24.10;99.90
6429;DHT22;3247;48.946;10.220;2022-07-29T06:39:10;23.70;99.90
6429;DHT22;3247;48.946;10.220;2022-07-29T06:41:35;23.40;99.90
6429;DHT22;3247;48.946;10.220;2022-07-29T06:44:01;23.30;99.90
6429;DHT22;3247;48.946;10.220;2022-07-29T06:46:27;23.00;99.90
6429;DHT22;3247;48.946;10.220;2022-07-29T06:48:52;23.20;99.90
6429;DHT22;3247;48.946;10.220;2022-07-29T06:51:18;23.90;99.90
6429;DHT22;3247;48.946;10.220;2022-07-29T06:53:44;24.90;99.90
6429;DHT22;3247;48.946;10.220;2022-07-29T06:56:09;25.70;99.90
6429;DHT22;3247;48.946;10.220;2022-07-29T06:58:35;25.80;99.90
6429;DHT22;3247;48.946;10.220;2022-07-29T07:01:02;26.30;99.90
6429;DHT22;3247;48.946;10.220;2022-07-29T07:03:27;26.10;99.90
6429;DHT22;3247;48.946;10.220;2022-07-29T07:05:53;26.00;99.90
6429;DHT22;3247;48.946;10.220;2022-07-29T07:08:19;25.50;99.90
6429;DHT22;3247;48.946;10.220;2022-07-29T07:10:45;25.20;99.90
6429;DHT22;3247;48.946;10.220;2022-07-29T07:13:10;25.10;99.90
6429;DHT22;3247;48.946;10.220;2022-07-29T07:15:36;24.90;99.90
6429;DHT22;3247;48.946;10.220;2022-07-29T07:18:02;24.80;99.90
6429;DHT22;3247;48.946;10.220;2022-07-29T07:20:27;24.60;99.90
6429;DHT22;3247;48.946;10.220;2022-07-29T07:22:53;24.40;99.90
6429;DHT22;3247;48.946;10.220;2022-07-29T07:25:18;24.50;99.90
6429;DHT22;3247;48.946;10.220;2022-07-29T07:27:44;24.50;99.90
6429;DHT22;3247;48.946;10.220;2022-07-29T07:30:10;25.10;99.90
6429;DHT22;3247;48.946;10.220;2022-07-29T07:32:35;25.80;99.90
6429;DHT22;3247;48.946;10.220;2022-07-29T07:35:01;27.30;99.90
6429;DHT22;3247;48.946;10.220;2022-07-29T07:37:27;28.50;99.90
6429;DHT22;3247;48.946;10.220;2022-07-29T07:39:52;29.30;99.90
6429;DHT22;3247;48.946;10.220;2022-07-29T07:42:18;30.20;99.90
6429;DHT22;3247;48.946;10.220;2022-07-29T07:44:44;30.40;99.90
6429;DHT22;3247;48.946;10.220;2022-07-29T07:47:14;31.40;99.90
6429;DHT22;3247;48.946;10.220;2022-07-29T07:49:39;32.40;99.90
6429;DHT22;3247;48.946;10.220;2022-07-29T07:52:05;32.30;99.90
6429;DHT22;3247;48.946;10.220;2022-07-29T07:54:31;32.20;99.20
6429;DHT22;3247;48.946;10.220;2022-07-29T07:56:56;32.30;99.90
6429;DHT22;3247;48.946;10.220;2022-07-29T07:59:22;33.40;99.90
6429;DHT22;3247;48.946;10.220;2022-07-29T08:01:49;33.00;98.10
6429;DHT22;3247;48.946;10.220;2022-07-29T08:04:14;33.70;98.00
6429;DHT22;3247;48.946;10.220;2022-07-29T08:06:39;33.70;95.70
6429;DHT22;3247;48.946;10.220;2022-07-29T08:09:05;33.30;97.20
6429;DHT22;3247;48.946;10.220;2022-07-29T08:11:31;33.30;96.20
6429;DHT22;3247;48.946;10.220;2022-07-29T08:13:56;33.10;95.60
6429;DHT22;3247;48.946;10.220;2022-07-29T08:16:22;33.10;94.60
6429;DHT22;3247;48.946;10.220;2022-07-29T08:18:47;33.40;94.40
6429;DHT22;3247;48.946;10.220;2022-07-29T08:21:13;33.40;94.40
6429;DHT22;3247;48.946;10.220;2022-07-29T08:23:39;33.20;95.90
6429;DHT22;3247;48.946;10.220;2022-07-29T08:26:10;32.80;94.30
6429;DHT22;3247;48.946;10.220;2022-07-29T08:28:45;32.30;95.20
6429;DHT22;3247;48.946;10.220;2022-07-29T08:31:11;31.60;95.80
6429;DHT22;3247;48.946;10.220;2022-07-29T08:33:37;31.10;96.40
6429;DHT22;3247;48.946;10.220;2022-07-29T08:36:02;30.40;96.90
6429;DHT22;3247;48.946;10.220;2022-07-29T08:38:28;30.20;95.10
6429;DHT22;3247;48.946;10.220;2022-07-29T08:40:54;30.90;97.60
6429;DHT22;3247;48.946;10.220;2022-07-29T08:43:20;31.30;94.40
6429;DHT22;3247;48.946;10.220;2022-07-29T08:45:47;30.90;94.70
6429;DHT22;3247;48.946;10.220;2022-07-29T08:48:13;30.90;96.30
6429;DHT22;3247;48.946;10.220;2022-07-29T08:50:39;30.50;96.40
6429;DHT22;3247;48.946;10.220;2022-07-29T08:53:05;30.00;97.40
6429;DHT22;3247;48.946;10.220;2022-07-29T08:55:31;29.60;98.60
6429;DHT22;3247;48.946;10.220;2022-07-29T08:57:57;29.70;97.60
6429;DHT22;3247;48.946;10.220;2022-07-29T09:00:23;29.10;98.10
6429;DHT22;3247;48.946;10.220;2022-07-29T09:02:51;29.50;97.10
6429;DHT22;3247;48.946;10.220;2022-07-29T09:05:21;29.90;98.80
6429;DHT22;3247;48.946;10.220;2022-07-29T09:07:48;30.50;97.00
6429;DHT22;3247;48.946;10.220;2022-07-29T09:10:13;30.80;96.60
6429;DHT22;3247;48.946;10.220;2022-07-29T09:12:39;31.00;94.50
6429;DHT22;3247;48.946;10.220;2022-07-29T09:15:05;30.90;94.50
6429;DHT22;3247;48.946;10.220;2022-07-29T09:17:46;31.40;94.40
6429;DHT22;3247;48.946;10.220;2022-07-29T09:20:13;31.60;93.90
6429;DHT22;3247;48.946;10.220;2022-07-29T09:22:39;31.60;95.10
6429;DHT22;3247;48.946;10.220;2022-07-29T09:25:04;31.50;93.50
6429;DHT22;3247;48.946;10.220;2022-07-29T09:27:30;31.70;92.90
6429;DHT22;3247;48.946;10.220;2022-07-29T09:29:56;32.10;94.20
6429;DHT22;3247;48.946;10.220;2022-07-29T09:32:22;32.10;92.90
6429;DHT22;3247;48.946;10.220;2022-07-29T09:34:48;31.70;92.10
6429;DHT22;3247;48.946;10.220;2022-07-29T09:37:25;31.40;91.10
6429;DHT22;3247;48.946;10.220;2022-07-29T09:39:51;31.10;92.40
6429;DHT22;3247;48.946;10.220;2022-07-29T09:42:26;31.20;92.50
6429;DHT22;3247;48.946;10.220;2022-07-29T09:44:52;31.50;93.40
6429;DHT22;3247;48.946;10.220;2022-07-29T09:47:18;31.70;92.10
6429;DHT22;3247;48.946;10.220;2022-07-29T09:49:51;32.40;90.60
6429;DHT22;3247;48.946;10.220;2022-07-29T09:52:17;32.50;92.20
6429;DHT22;3247;48.946;10.220;2022-07-29T09:54:42;32.40;91.70
6429;DHT22;3247;48.946;10.220;2022-07-29T09:57:08;32.30;91.20
6429;DHT22;3247;48.946;10.220;2022-07-29T09:59:37;32.60;92.30
6429;DHT22;3247;48.946;10.220;2022-07-29T10:02:11;32.50;90.50
6429;DHT22;3247;48.946;10.220;2022-07-29T10:04:37;32.50;92.00
6429;DHT22;3247;48.946;10.220;2022-07-29T10:07:03;32.10;90.20
6429;DHT22;3247;48.946;10.220;2022-07-29T10:09:30;31.20;91.10
6429;DHT22;3247;48.946;10.220;2022-07-29T10:12:02;30.80;93.10
6429;DHT22;3247;48.946;10.220;2022-07-29T10:14:28;30.50;92.50
6429;DHT22;3247;48.946;10.220;2022-07-29T10:16:54;30.10;93.30
6429;DHT22;3247;48.946;10.220;2022-07-29T10:19:20;30.20;93.90
6429;DHT22;3247;48.946;10.220;2022-07-29T10:21:45;30.40;93.30
6429;DHT22;3247;48.946;10.220;2022-07-29T10:24:11;30.70;93.50
6429;DHT22;3247;48.946;10.220;2022-07-29T10:26:37;31.00;94.10
6429;DHT22;3247;48.946;10.220;2022-07-29T10:29:06;31.00;93.00
6429;DHT22;3247;48.946;10.220;2022-07-29T10:31:35;31.30;93.30
6429;DHT22;3247;48.946;10.220;2022-07-29T10:37:02;31.00;92.40
6429;DHT22;3247;48.946;10.220;2022-07-29T10:39:44;31.20;93.40
6429;DHT22;3247;48.946;10.220;2022-07-29T10:44:39;31.70;92.10
6429;DHT22;3247;48.946;10.220;2022-07-29T10:47:05;31.40;92.70
6429;DHT22;3247;48.946;10.220;2022-07-29T10:49:31;31.40;92.40
6429;DHT22;3247;48.946;10.220;2022-07-29T10:51:58;31.50;91.50
6429;DHT22;3247;48.946;10.220;2022-07-29T10:57:15;31.10;92.20
6429;DHT22;3247;48.946;10.220;2022-07-29T10:59:44;31.30;92.30
6429;DHT22;3247;48.946;10.220;2022-07-29T11:05:19;30.80;91.30
6429;DHT22;3247;48.946;10.220;2022-07-29T11:10:29;30.50;92.20
6429;DHT22;3247;48.946;10.220;2022-07-29T11:12:55;30.50;91.90
6429;DHT22;3247;48.946;10.220;2022-07-29T11:15:20;30.40;91.30
6429;DHT22;3247;48.946;10.220;2022-07-29T11:20:41;30.50;90.90
6429;DHT22;3247;48.946;10.220;2022-07-29T11:23:17;30.70;91.40
6429;DHT22;3247;48.946;10.220;2022-07-29T11:25:43;31.10;91.00
6429;DHT22;3247;48.946;10.220;2022-07-29T11:28:16;31.70;90.50
6429;DHT22;3247;48.946;10.220;2022-07-29T11:30:47;31.80;88.80
6429;DHT22;3247;48.946;10.220;2022-07-29T11:33:32;31.70;87.70
6429;DHT22;3247;48.946;10.220;2022-07-29T11:36:08;31.70;86.80
6429;DHT22;3247;48.946;10.220;2022-07-29T11:38:34;31.80;87.60
6429;DHT22;3247;48.946;10.220;2022-07-29T11:44:01;32.40;83.90
6429;DHT22;3247;48.946;10.220;2022-07-29T11:46:46;32.10;87.40
6429;DHT22;3247;48.946;10.220;2022-07-29T11:49:20;31.70;86.60
6429;DHT22;3247;48.946;10.220;2022-07-29T11:51:52;31.30;87.40
6429;DHT22;3247;48.946;10.220;2022-07-29T11:54:21;31.40;88.00
6429;DHT22;3247;48.946;10.220;2022-07-29T11:56:48;31.70;85.00
6429;DHT22;3247;48.946;10.220;2022-07-29T11:59:14;31.70;83.80
6429;DHT22;3247;48.946;10.220;2022-07-29T12:01:51;31.70;83.70
6429;DHT22;3247;48.946;10.220;2022-07-29T12:04:16;31.50;84.90
6429;DHT22;3247;48.946;10.220;2022-07-29T12:06:42;31.50;87.70
6429;DHT22;3247;48.946;10.220;2022-07-29T12:09:08;31.60;87.70
6429;DHT22;3247;48.946;10.220;2022-07-29T12:11:33;31.50;85.90
6429;DHT22;3247;48.946;10.220;2022-07-29T12:13:59;31.00;86.60
6429;DHT22;3247;48.946;10.220;2022-07-29T12:16:33;30.70;87.40
6429;DHT22;3247;48.946;10.220;2022-07-29T12:18:59;30.50;88.10
6429;DHT22;3247;48.946;10.220;2022-07-29T12:21:26;30.40;88.90
6429;DHT22;3247;48.946;10.220;2022-07-29T12:23:52;30.20;88.50
6429;DHT22;3247;48.946;10.220;2022-07-29T12:26:18;30.40;89.20
6429;DHT22;3247;48.946;10.220;2022-07-29T12:28:43;30.40;89.70
6429;DHT22;3247;48.946;10.220;2022-07-29T12:31:15;30.40;89.60
6429;DHT22;3247;48.946;10.220;2022-07-29T12:33:41;30.10;89.00
6429;DHT22;3247;48.946;10.220;2022-07-29T12:36:07;29.80;90.00
6429;DHT22;3247;48.946;10.220;2022-07-29T12:38:36;29.50;90.20
6429;DHT22;3247;48.946;10.220;2022-07-29T12:41:02;29.50;91.10
6429;DHT22;3247;48.946;10.220;2022-07-29T12:43:28;29.20;90.90
6429;DHT22;3247;48.946;10.220;2022-07-29T12:45:54;29.10;91.50
6429;DHT22;3247;48.946;10.220;2022-07-29T12:50:59;29.00;91.90
6429;DHT22;3247;48.946;10.220;2022-07-29T12:53:25;28.90;92.30
6429;DHT22;3247;48.946;10.220;2022-07-29T12:55:52;28.70;92.30
6429;DHT22;3247;48.946;10.220;2022-07-29T13:08:58;28.90;97.10
6429;DHT22;3247;48.946;10.220;2022-07-29T13:11:27;28.40;96.30
6429;DHT22;3247;48.946;10.220;2022-07-29T13:13:53;28.10;97.10
6429;DHT22;3247;48.946;10.220;2022-07-29T13:16:18;28.00;94.80
6429;DHT22;3247;48.946;10.220;2022-07-29T13:18:44;27.70;93.20
6429;DHT22;3247;48.946;10.220;2022-07-29T13:21:15;27.30;92.50
6429;DHT22;3247;48.946;10.220;2022-07-29T13:23:41;27.00;92.80
6429;DHT22;3247;48.946;10.220;2022-07-29T13:26:07;26.90;93.80
6429;DHT22;3247;48.946;10.220;2022-07-29T13:28:33;26.80;95.00
6429;DHT22;3247;48.946;10.220;2022-07-29T13:30:59;26.80;94.70
6429;DHT22;3247;48.946;10.220;2022-07-29T13:33:25;26.90;92.80
6429;DHT22;3247;48.946;10.220;2022-07-29T13:35:50;26.90;92.30
6429;DHT22;3247;48.946;10.220;2022-07-29T13:38:15;27.00;91.80
6429;DHT22;3247;48.946;10.220;2022-07-29T13:40:41;26.90;91.90
6429;DHT22;3247;48.946;10.220;2022-07-29T13:43:10;27.00;92.80
6429;DHT22;3247;48.946;10.220;2022-07-29T13:45:36;27.20;92.60
6429;DHT22;3247;48.946;10.220;2022-07-29T13:48:02;27.50;93.10
6429;DHT22;3247;48.946;10.220;2022-07-29T13:50:31;27.90;93.20
6429;DHT22;3247;48.946;10.220;2022-07-29T13:52:56;28.10;92.40
6429;DHT22;3247;48.946;10.220;2022-07-29T13:55:22;28.30;92.20
6429;DHT22;3247;48.946;10.220;2022-07-29T13:57:47;28.20;92.60
6429;DHT22;3247;48.946;10.220;2022-07-29T14:00:13;28.30;92.40
6429;DHT22;3247;48.946;10.220;2022-07-29T14:02:38;28.30;92.30
6429;DHT22;3247;48.946;10.220;2022-07-29T14:05:05;28.40;92.30
6429;DHT22;3247;48.946;10.220;2022-07-29T14:07:30;28.50;92.60
6429;DHT22;3247;48.946;10.220;2022-07-29T14:09:56;28.70;92.30
6429;DHT22;3247;48.946;10.220;2022-07-29T14:12:22;28.80;92.20
6429;DHT22;3247;48.946;10.220;2022-07-29T14:14:47;28.70;92.20
6429;DHT22;3247;48.946;10.220;2022-07-29T14:17:13;28.60;92.30
6429;DHT22;3247;48.946;10.220;2022-07-29T14:19:39;28.90;91.80
6429;DHT22;3247;48.946;10.220;2022-07-29T14:22:05;28.80;92.00
6429;DHT22;3247;48.946;10.220;2022-07-29T14:24:31;28.70;92.70
6429;DHT22;3247;48.946;10.220;2022-07-29T14:26:56;28.80;93.00
6429;DHT22;3247;48.946;10.220;2022-07-29T14:29:22;28.70;93.60
6429;DHT22;3247;48.946;10.220;2022-07-29T14:31:48;28.70;93.40
6429;DHT22;3247;48.946;10.220;2022-07-29T14:34:13;28.60;93.70
6429;DHT22;3247;48.946;10.220;2022-07-29T14:36:40;28.20;94.60
6429;DHT22;3247;48.946;10.220;2022-07-29T14:39:06;28.30;95.20
6429;DHT22;3247;48.946;10.220;2022-07-29T14:41:31;28.20;95.20
6429;DHT22;3247;48.946;10.220;2022-07-29T14:43:57;28.20;95.40
6429;DHT22;3247;48.946;10.220;2022-07-29T14:46:26;28.10;95.80
6429;DHT22;3247;48.946;10.220;2022-07-29T14:48:51;27.90;95.00
6429;DHT22;3247;48.946;10.220;2022-07-29T14:51:22;27.90;93.20
6429;DHT22;3247;48.946;10.220;2022-07-29T14:53:48;27.80;92.50
6429;DHT22;3247;48.946;10.220;2022-07-29T14:56:13;27.80;91.40
6429;DHT22;3247;48.946;10.220;2022-07-29T14:58:39;27.80;91.90
6429;DHT22;3247;48.946;10.220;2022-07-29T15:01:04;27.50;92.50
6429;DHT22;3247;48.946;10.220;2022-07-29T15:03:31;27.50;92.40
6429;DHT22;3247;48.946;10.220;2022-07-29T15:05:56;27.50;92.80
6429;DHT22;3247;48.946;10.220;2022-07-29T15:08:22;27.40;93.20
6429;DHT22;3247;48.946;10.220;2022-07-29T15:10:48;27.40;93.80
6429;DHT22;3247;48.946;10.220;2022-07-29T15:13:13;27.30;93.80
6429;DHT22;3247;48.946;10.220;2022-07-29T15:15:39;27.40;94.40
6429;DHT22;3247;48.946;10.220;2022-07-29T15:18:04;27.20;94.40
6429;DHT22;3247;48.946;10.220;2022-07-29T15:20:42;27.20;95.00
6429;DHT22;3247;48.946;10.220;2022-07-29T15:23:10;27.20;95.40
6429;DHT22;3247;48.946;10.220;2022-07-29T15:25:37;27.10;95.60
6429;DHT22;3247;48.946;10.220;2022-07-29T15:28:03;27.10;95.60
6429;DHT22;3247;48.946;10.220;2022-07-29T15:30:32;27.00;95.90
6429;DHT22;3247;48.946;10.220;2022-07-29T15:32:58;26.90;95.70
6429;DHT22;3247;48.946;10.220;2022-07-29T15:35:23;26.90;95.50
6429;DHT22;3247;48.946;10.220;2022-07-29T15:37:49;26.80;95.30
6429;DHT22;3247;48.946;10.220;2022-07-29T15:40:15;26.70;95.00
6429;DHT22;3247;48.946;10.220;2022-07-29T15:42:40;26.60;95.20
6429;DHT22;3247;48.946;10.220;2022-07-29T15:45:06;26.50;95.00
6429;DHT22;3247;48.946;10.220;2022-07-29T15:47:31;26.30;95.40
6429;DHT22;3247;48.946;10.220;2022-07-29T15:49:57;26.30;95.70
6429;DHT22;3247;48.946;10.220;2022-07-29T15:52:22;26.30;95.60
6429;DHT22;3247;48.946;10.220;2022-07-29T15:54:48;26.10;95.30
6429;DHT22;3247;48.946;10.220;2022-07-29T15:57:13;26.00;95.30
6429;DHT22;3247;48.946;10.220;2022-07-29T15:59:39;25.90;95.10
6429;DHT22;3247;48.946;10.220;2022-07-29T16:02:04;25.70;95.20
6429;DHT22;3247;48.946;10.220;2022-07-29T16:04:30;25.60;94.80
6429;DHT22;3247;48.946;10.220;2022-07-29T16:06:56;25.50;95.10
6429;DHT22;3247;48.946;10.220;2022-07-29T16:09:22;25.50;95.10
6429;DHT22;3247;48.946;10.220;2022-07-29T16:11:47;25.40;95.50
6429;DHT22;3247;48.946;10.220;2022-07-29T16:14:15;25.30;95.60
6429;DHT22;3247;48.946;10.220;2022-07-29T16:16:41;25.20;96.00
6429;DHT22;3247;48.946;10.220;2022-07-29T16:19:07;25.10;96.50
6429;DHT22;3247;48.946;10.220;2022-07-29T16:21:34;25.10;96.50
6429;DHT22;3247;48.946;10.220;2022-07-29T16:24:00;25.10;96.90
6429;DHT22;3247;48.946;10.220;2022-07-29T16:26:26;25.00;96.80